sensor_id;sensor_type;location;lat;lon;timestamp;temperature;humidity
18131;DHT22;9191;54.324;10.126;2023-02-12T00:00:40;7.80;99.90
18131;DHT22;9191;54.324;10.126;2023-02-12T00:03:07;7.80;99.90
18131;DHT22;9191;54.324;10.126;2023-02-12T00:05:36;7.90;99.90
18131;DHT22;9191;54.324;10.126;2023-02-12T00:08:02;7.90;99.90
18131;DHT22;9191;54.324;10.126;2023-02-12T00:10:31;7.90;99.90
18131;DHT22;9191;54.324;10.126;2023-02-12T00:12:57;7.80;99.90
18131;DHT22;9191;54.324;10.126;2023-02-12T00:15:24;7.80;99.90
18131;DHT22;9191;54.324;10.126;2023-02-12T00:17:50;7.80;99.90
18131;DHT22;9191;54.324;10.126;2023-02-12T00:20:17;7.80;99.90
18131;DHT22;9191;54.324;10.126;2023-02-12T00:22:44;7.90;99.90
18131;DHT22;9191;54.324;10.126;2023-02-12T00:25:10;7.90;99.90
18131;DHT22;9191;54.324;10.126;2023-02-12T00:27:39;7.90;99.90
18131;DHT22;9191;54.324;10.126;2023-02-12T00:30:06;7.90;99.90
18131;DHT22;9191;54.324;10.126;2023-02-12T00:32:33;8.00;99.90
18131;DHT22;9191;54.324;10.126;2023-02-12T00:35:01;7.90;99.90
18131;DHT22;9191;54.324;10.126;2023-02-12T00:37:28;7.80;99.90
18131;DHT22;9191;54.324;10.126;2023-02-12T00:39:55;7.80;99.90
18131;DHT22;9191;54.324;10.126;2023-02-12T00:42:21;7.80;99.90
18131;DHT22;9191;54.324;10.126;2023-02-12T00:44:49;7.80;99.90
18131;DHT22;9191;54.324;10.126;2023-02-12T00:47:16;7.70;99.90
18131;DHT22;9191;54.324;10.126;2023-02-12T00:49:43;7.80;99.90
18131;DHT22;9191;54.324;10.126;2023-02-12T00:52:09;7.80;99.90
18131;DHT22;9191;54.324;10.126;2023-02-12T00:54:36;7.80;99.90
18131;DHT22;9191;54.324;10.126;2023-02-12T00:57:03;7.80;99.90
18131;DHT22;9191;54.324;10.126;2023-02-12T00:59:29;7.90;99.90
18131;DHT22;9191;54.324;10.126;2023-02-12T01:01:58;7.80;99.90
18131;DHT22;9191;54.324;10.126;2023-02-12T01:04:24;7.80;99.90
18131;DHT22;9191;54.324;10.126;2023-02-12T01:06:51;7.80;99.90
18131;DHT22;9191;54.324;10.126;2023-02-12T01:09:18;7.80;99.90
18131;DHT22;9191;54.324;10.126;2023-02-12T01:11:45;7.80;99.90
18131;DHT22;9191;54.324;10.126;2023-02-12T01:14:11;7.80;99.90
18131;DHT22;9191;54.324;10.126;2023-02-12T01:16:38;8.00;99.90
18131;DHT22;9191;54.324;10.126;2023-02-12T01:19:06;7.90;99.90
18131;DHT22;9191;54.324;10.126;2023-02-12T01:21:33;8.00;99.90
18131;DHT22;9191;54.324;10.126;2023-02-12T01:24:00;7.90;99.90
18131;DHT22;9191;54.324;10.126;2023-02-12T01:26:27;7.90;99.90
18131;DHT22;9191;54.324;10.126;2023-02-12T01:28:55;7.90;99.90
18131;DHT22;9191;54.324;10.126;2023-02-12T01:31:23;7.90;99.90
18131;DHT22;9191;54.324;10.126;2023-02-12T01:33:51;7.90;99.90
18131;DHT22;9191;54.324;10.126;2023-02-12T01:36:19;7.80;99.90
18131;DHT22;9191;54.324;10.126;2023-02-12T01:38:47;7.80;99.90
18131;DHT22;9191;54.324;10.126;2023-02-12T01:41:14;7.80;99.90
18131;DHT22;9191;54.324;10.126;2023-02-12T01:43:41;7.90;99.90
18131;DHT22;9191;54.324;10.126;2023-02-12T01:46:11;8.00;99.90
18131;DHT22;9191;54.324;10.126;2023-02-12T01:48:41;8.00;99.90
18131;DHT22;9191;54.324;10.126;2023-02-12T01:51:10;8.00;99.90
18131;DHT22;9191;54.324;10.126;2023-02-12T01:53:53;8.00;99.90
18131;DHT22;9191;54.324;10.126;2023-02-12T01:56:22;8.00;99.90
18131;DHT22;9191;54.324;10.126;2023-02-12T01:58:50;8.00;99.90
18131;DHT22;9191;54.324;10.126;2023-02-12T02:01:21;7.90;99.90
18131;DHT22;9191;54.324;10.126;2023-02-12T02:03:51;7.90;99.90
18131;DHT22;9191;54.324;10.126;2023-02-12T02:06:19;7.90;99.90
18131;DHT22;9191;54.324;10.126;2023-02-12T02:08:48;7.90;99.90
18131;DHT22;9191;54.324;10.126;2023-02-12T02:11:15;7.90;99.90
18131;DHT22;9191;54.324;10.126;2023-02-12T02:13:59;7.90;99.90
18131;DHT22;9191;54.324;10.126;2023-02-12T02:16:44;8.00;99.90
18131;DHT22;9191;54.324;10.126;2023-02-12T02:19:16;7.90;99.90
18131;DHT22;9191;54.324;10.126;2023-02-12T02:27:55;7.90;99.90
18131;DHT22;9191;54.324;10.126;2023-02-12T02:30:34;7.90;99.90
18131;DHT22;9191;54.324;10.126;2023-02-12T02:33:17;7.80;99.90
18131;DHT22;9191;54.324;10.126;2023-02-12T02:35:51;7.80;99.90
18131;DHT22;9191;54.324;10.126;2023-02-12T02:38:28;7.80;99.90
18131;DHT22;9191;54.324;10.126;2023-02-12T02:41:03;7.90;99.90
18131;DHT22;9191;54.324;10.126;2023-02-12T02:43:34;7.90;99.90
18131;DHT22;9191;54.324;10.126;2023-02-12T02:46:06;8.00;99.90
18131;DHT22;9191;54.324;10.126;2023-02-12T02:48:36;8.00;99.90
18131;DHT22;9191;54.324;10.126;2023-02-12T02:51:08;7.90;99.90
18131;DHT22;9191;54.324;10.126;2023-02-12T02:53:39;7.90;99.90
18131;DHT22;9191;54.324;10.126;2023-02-12T02:56:11;7.90;99.90
18131;DHT22;9191;54.324;10.126;2023-02-12T02:58:42;7.80;99.90
18131;DHT22;9191;54.324;10.126;2023-02-12T03:01:14;7.90;99.90
18131;DHT22;9191;54.324;10.126;2023-02-12T03:03:46;7.80;99.90
18131;DHT22;9191;54.324;10.126;2023-02-12T03:06:19;7.90;99.90
18131;DHT22;9191;54.324;10.126;2023-02-12T03:08:51;7.80;99.90
18131;DHT22;9191;54.324;10.126;2023-02-12T03:11:22;7.80;99.90
18131;DHT22;9191;54.324;10.126;2023-02-12T03:13:54;7.90;99.90
18131;DHT22;9191;54.324;10.126;2023-02-12T03:16:25;7.90;99.90
18131;DHT22;9191;54.324;10.126;2023-02-12T03:18:55;7.90;99.90
18131;DHT22;9191;54.324;10.126;2023-02-12T03:21:29;7.90;99.90
18131;DHT22;9191;54.324;10.126;2023-02-12T03:24:01;7.90;99.90
18131;DHT22;9191;54.324;10.126;2023-02-12T03:26:38;7.90;99.90
18131;DHT22;9191;54.324;10.126;2023-02-12T03:29:06;7.80;99.90
18131;DHT22;9191;54.324;10.126;2023-02-12T03:31:42;7.80;99.90
18131;DHT22;9191;54.324;10.126;2023-02-12T03:34:17;7.80;99.90
18131;DHT22;9191;54.324;10.126;2023-02-12T03:36:51;7.80;99.90
18131;DHT22;9191;54.324;10.126;2023-02-12T03:39:27;7.80;99.90
18131;DHT22;9191;54.324;10.126;2023-02-12T03:42:01;7.80;99.90
18131;DHT22;9191;54.324;10.126;2023-02-12T03:44:43;7.80;99.90
18131;DHT22;9191;54.324;10.126;2023-02-12T03:47:20;7.90;99.90
18131;DHT22;9191;54.324;10.126;2023-02-12T03:49:54;7.80;99.90
18131;DHT22;9191;54.324;10.126;2023-02-12T03:52:24;7.80;99.90
18131;DHT22;9191;54.324;10.126;2023-02-12T03:54:51;7.80;99.90
18131;DHT22;9191;54.324;10.126;2023-02-12T03:57:20;7.80;99.90
18131;DHT22;9191;54.324;10.126;2023-02-12T03:59:49;7.90;99.90
18131;DHT22;9191;54.324;10.126;2023-02-12T04:02:17;7.90;99.90
18131;DHT22;9191;54.324;10.126;2023-02-12T04:04:46;7.80;99.90
18131;DHT22;9191;54.324;10.126;2023-02-12T04:07:14;7.70;99.90
18131;DHT22;9191;54.324;10.126;2023-02-12T04:09:42;7.80;99.90
18131;DHT22;9191;54.324;10.126;2023-02-12T04:12:25;7.80;99.90
18131;DHT22;9191;54.324;10.126;2023-02-12T04:15:05;7.80;99.90
18131;DHT22;9191;54.324;10.126;2023-02-12T04:17:43;7.80;99.90
18131;DHT22;9191;54.324;10.126;2023-02-12T04:20:22;7.70;99.90
18131;DHT22;9191;54.324;10.126;2023-02-12T04:22:56;7.80;99.90
18131;DHT22;9191;54.324;10.126;2023-02-12T04:25:39;7.90;99.90
18131;DHT22;9191;54.324;10.126;2023-02-12T04:28:13;7.80;99.90
18131;DHT22;9191;54.324;10.126;2023-02-12T04:30:45;7.80;99.90
18131;DHT22;9191;54.324;10.126;2023-02-12T04:33:18;7.80;99.90
18131;DHT22;9191;54.324;10.126;2023-02-12T04:35:49;7.80;99.90
18131;DHT22;9191;54.324;10.126;2023-02-12T04:38:20;7.70;99.90
18131;DHT22;9191;54.324;10.126;2023-02-12T04:40:48;7.70;99.90
18131;DHT22;9191;54.324;10.126;2023-02-12T04:43:26;7.60;99.90
18131;DHT22;9191;54.324;10.126;2023-02-12T04:45:53;7.60;99.90
18131;DHT22;9191;54.324;10.126;2023-02-12T04:48:21;7.70;99.90
18131;DHT22;9191;54.324;10.126;2023-02-12T04:50:48;7.70;99.90
18131;DHT22;9191;54.324;10.126;2023-02-12T04:53:15;7.80;99.90
18131;DHT22;9191;54.324;10.126;2023-02-12T04:55:42;7.80;99.90
18131;DHT22;9191;54.324;10.126;2023-02-12T04:58:09;7.60;99.90
18131;DHT22;9191;54.324;10.126;2023-02-12T05:00:36;7.60;99.90
18131;DHT22;9191;54.324;10.126;2023-02-12T05:03:03;7.60;99.90
18131;DHT22;9191;54.324;10.126;2023-02-12T05:05:31;7.50;99.90
18131;DHT22;9191;54.324;10.126;2023-02-12T05:07:58;7.50;99.90
18131;DHT22;9191;54.324;10.126;2023-02-12T05:10:25;7.60;99.90
18131;DHT22;9191;54.324;10.126;2023-02-12T05:12:52;7.50;99.90
18131;DHT22;9191;54.324;10.126;2023-02-12T05:15:19;7.50;99.90
18131;DHT22;9191;54.324;10.126;2023-02-12T05:17:46;7.50;99.90
18131;DHT22;9191;54.324;10.126;2023-02-12T05:20:13;7.50;99.90
18131;DHT22;9191;54.324;10.126;2023-02-12T05:22:42;7.50;99.90
18131;DHT22;9191;54.324;10.126;2023-02-12T05:25:08;7.50;99.90
18131;DHT22;9191;54.324;10.126;2023-02-12T05:27:36;7.50;99.90
18131;DHT22;9191;54.324;10.126;2023-02-12T05:30:03;7.50;99.90
18131;DHT22;9191;54.324;10.126;2023-02-12T05:32:30;7.50;99.90
18131;DHT22;9191;54.324;10.126;2023-02-12T05:34:57;7.50;99.90
18131;DHT22;9191;54.324;10.126;2023-02-12T05:37:24;7.70;99.90
18131;DHT22;9191;54.324;10.126;2023-02-12T05:39:52;7.50;99.90
18131;DHT22;9191;54.324;10.126;2023-02-12T05:42:19;7.60;99.90
18131;DHT22;9191;54.324;10.126;2023-02-12T05:44:46;7.50;99.90
18131;DHT22;9191;54.324;10.126;2023-02-12T05:47:13;7.50;99.90
18131;DHT22;9191;54.324;10.126;2023-02-12T05:49:39;7.50;99.90
18131;DHT22;9191;54.324;10.126;2023-02-12T05:52:07;7.50;99.90
18131;DHT22;9191;54.324;10.126;2023-02-12T05:54:34;7.40;99.90
18131;DHT22;9191;54.324;10.126;2023-02-12T05:57:02;7.30;99.90
18131;DHT22;9191;54.324;10.126;2023-02-12T05:59:29;7.30;99.90
18131;DHT22;9191;54.324;10.126;2023-02-12T06:01:56;7.30;99.90
18131;DHT22;9191;54.324;10.126;2023-02-12T06:04:24;7.40;99.90
18131;DHT22;9191;54.324;10.126;2023-02-12T06:06:51;7.40;99.90
18131;DHT22;9191;54.324;10.126;2023-02-12T06:09:19;7.40;99.90
18131;DHT22;9191;54.324;10.126;2023-02-12T06:11:46;7.40;99.90
18131;DHT22;9191;54.324;10.126;2023-02-12T06:14:16;7.40;99.90
18131;DHT22;9191;54.324;10.126;2023-02-12T06:16:44;7.40;99.90
18131;DHT22;9191;54.324;10.126;2023-02-12T06:19:12;7.50;99.90
18131;DHT22;9191;54.324;10.126;2023-02-12T06:21:39;7.50;99.90
18131;DHT22;9191;54.324;10.126;2023-02-12T06:24:06;7.40;99.90
18131;DHT22;9191;54.324;10.126;2023-02-12T06:26:33;7.50;99.90
18131;DHT22;9191;54.324;10.126;2023-02-12T06:29:00;7.50;99.90
18131;DHT22;9191;54.324;10.126;2023-02-12T06:31:30;7.50;99.90
18131;DHT22;9191;54.324;10.126;2023-02-12T06:34:00;7.60;99.90
18131;DHT22;9191;54.324;10.126;2023-02-12T06:36:27;7.60;99.90
18131;DHT22;9191;54.324;10.126;2023-02-12T06:38:54;7.60;99.90
18131;DHT22;9191;54.324;10.126;2023-02-12T06:41:21;7.60;99.90
18131;DHT22;9191;54.324;10.126;2023-02-12T06:43:48;7.60;99.90
18131;DHT22;9191;54.324;10.126;2023-02-12T06:46:16;7.60;99.90
18131;DHT22;9191;54.324;10.126;2023-02-12T06:48:44;7.60;99.90
18131;DHT22;9191;54.324;10.126;2023-02-12T06:51:13;7.60;99.90
18131;DHT22;9191;54.324;10.126;2023-02-12T06:53:40;7.60;99.90
18131;DHT22;9191;54.324;10.126;2023-02-12T06:56:09;7.60;99.90
18131;DHT22;9191;54.324;10.126;2023-02-12T06:58:38;8.30;99.90
18131;DHT22;9191;54.324;10.126;2023-02-12T07:01:08;9.70;99.90
18131;DHT22;9191;54.324;10.126;2023-02-12T07:03:38;9.90;99.90
18131;DHT22;9191;54.324;10.126;2023-02-12T07:06:07;9.20;99.90
18131;DHT22;9191;54.324;10.126;2023-02-12T07:08:34;8.80;99.90
18131;DHT22;9191;54.324;10.126;2023-02-12T07:11:02;8.50;99.90
18131;DHT22;9191;54.324;10.126;2023-02-12T07:13:28;8.20;99.90
18131;DHT22;9191;54.324;10.126;2023-02-12T07:15:55;8.10;99.90
18131;DHT22;9191;54.324;10.126;2023-02-12T07:18:22;8.10;99.90
18131;DHT22;9191;54.324;10.126;2023-02-12T07:20:49;8.10;99.90
18131;DHT22;9191;54.324;10.126;2023-02-12T07:23:17;8.10;99.90
18131;DHT22;9191;54.324;10.126;2023-02-12T07:25:53;8.00;99.90
18131;DHT22;9191;54.324;10.126;2023-02-12T07:28:20;8.00;99.90
18131;DHT22;9191;54.324;10.126;2023-02-12T07:30:47;8.00;99.90
18131;DHT22;9191;54.324;10.126;2023-02-12T07:33:14;8.00;99.90
18131;DHT22;9191;54.324;10.126;2023-02-12T07:35:41;8.00;99.90
18131;DHT22;9191;54.324;10.126;2023-02-12T07:38:08;8.00;99.90
18131;DHT22;9191;54.324;10.126;2023-02-12T07:40:36;8.00;99.90
18131;DHT22;9191;54.324;10.126;2023-02-12T07:43:03;8.10;99.90
18131;DHT22;9191;54.324;10.126;2023-02-12T07:45:30;8.10;99.90
18131;DHT22;9191;54.324;10.126;2023-02-12T07:47:57;8.10;99.90
18131;DHT22;9191;54.324;10.126;2023-02-12T07:50:24;8.10;99.90
18131;DHT22;9191;54.324;10.126;2023-02-12T07:52:50;8.10;99.90
18131;DHT22;9191;54.324;10.126;2023-02-12T07:55:17;8.00;99.90
18131;DHT22;9191;54.324;10.126;2023-02-12T07:57:46;8.00;99.90
18131;DHT22;9191;54.324;10.126;2023-02-12T08:00:14;7.90;99.90
18131;DHT22;9191;54.324;10.126;2023-02-12T08:02:41;8.00;99.90
18131;DHT22;9191;54.324;10.126;2023-02-12T08:05:17;8.00;99.90
18131;DHT22;9191;54.324;10.126;2023-02-12T08:07:43;8.10;99.90
18131;DHT22;9191;54.324;10.126;2023-02-12T08:10:10;8.10;99.90
18131;DHT22;9191;54.324;10.126;2023-02-12T08:12:37;8.10;99.90
18131;DHT22;9191;54.324;10.126;2023-02-12T08:15:06;8.00;99.90
18131;DHT22;9191;54.324;10.126;2023-02-12T08:17:33;8.10;99.90
18131;DHT22;9191;54.324;10.126;2023-02-12T08:20:00;8.20;99.90
18131;DHT22;9191;54.324;10.126;2023-02-12T08:22:27;8.20;99.90
18131;DHT22;9191;54.324;10.126;2023-02-12T08:24:54;8.30;99.90
18131;DHT22;9191;54.324;10.126;2023-02-12T08:27:21;8.30;99.90
18131;DHT22;9191;54.324;10.126;2023-02-12T08:29:47;8.20;99.90
18131;DHT22;9191;54.324;10.126;2023-02-12T08:32:16;8.30;99.90
18131;DHT22;9191;54.324;10.126;2023-02-12T08:34:43;8.40;99.90
18131;DHT22;9191;54.324;10.126;2023-02-12T08:37:09;8.50;99.90
18131;DHT22;9191;54.324;10.126;2023-02-12T08:39:36;8.50;99.90
18131;DHT22;9191;54.324;10.126;2023-02-12T08:42:03;8.50;99.90
18131;DHT22;9191;54.324;10.126;2023-02-12T08:44:30;8.60;99.90
18131;DHT22;9191;54.324;10.126;2023-02-12T08:46:57;8.60;99.90
18131;DHT22;9191;54.324;10.126;2023-02-12T08:49:27;8.70;99.90
18131;DHT22;9191;54.324;10.126;2023-02-12T08:51:55;8.70;99.90
18131;DHT22;9191;54.324;10.126;2023-02-12T08:54:24;8.60;99.90
18131;DHT22;9191;54.324;10.126;2023-02-12T08:56:54;8.60;99.90
18131;DHT22;9191;54.324;10.126;2023-02-12T08:59:21;8.70;99.90
18131;DHT22;9191;54.324;10.126;2023-02-12T09:01:50;8.90;99.90
18131;DHT22;9191;54.324;10.126;2023-02-12T09:04:20;8.80;99.90
18131;DHT22;9191;54.324;10.126;2023-02-12T09:06:49;8.90;99.90
18131;DHT22;9191;54.324;10.126;2023-02-12T09:09:17;8.90;99.90
18131;DHT22;9191;54.324;10.126;2023-02-12T09:11:45;8.90;99.90
18131;DHT22;9191;54.324;10.126;2023-02-12T09:14:14;9.00;99.90
18131;DHT22;9191;54.324;10.126;2023-02-12T09:16:42;9.10;99.90
18131;DHT22;9191;54.324;10.126;2023-02-12T09:19:11;9.30;99.90
18131;DHT22;9191;54.324;10.126;2023-02-12T09:21:38;9.30;99.90
18131;DHT22;9191;54.324;10.126;2023-02-12T09:24:06;9.10;99.90
18131;DHT22;9191;54.324;10.126;2023-02-12T09:26:33;9.30;99.90
18131;DHT22;9191;54.324;10.126;2023-02-12T09:29:01;9.30;99.90
18131;DHT22;9191;54.324;10.126;2023-02-12T09:31:30;9.30;99.90
18131;DHT22;9191;54.324;10.126;2023-02-12T09:33:59;9.30;99.90
18131;DHT22;9191;54.324;10.126;2023-02-12T09:36:26;9.40;99.90
18131;DHT22;9191;54.324;10.126;2023-02-12T09:38:53;9.30;99.90
18131;DHT22;9191;54.324;10.126;2023-02-12T09:44:21;9.50;99.90
18131;DHT22;9191;54.324;10.126;2023-02-12T09:46:52;9.40;99.90
18131;DHT22;9191;54.324;10.126;2023-02-12T09:49:40;9.30;99.90
18131;DHT22;9191;54.324;10.126;2023-02-12T09:52:15;9.40;99.90
18131;DHT22;9191;54.324;10.126;2023-02-12T09:54:43;9.30;99.90
18131;DHT22;9191;54.324;10.126;2023-02-12T09:57:16;9.40;99.90
18131;DHT22;9191;54.324;10.126;2023-02-12T09:59:47;9.40;99.90
18131;DHT22;9191;54.324;10.126;2023-02-12T10:02:18;9.50;99.90
18131;DHT22;9191;54.324;10.126;2023-02-12T10:04:47;9.60;99.90
18131;DHT22;9191;54.324;10.126;2023-02-12T10:07:21;9.40;99.90
18131;DHT22;9191;54.324;10.126;2023-02-12T10:10:17;9.30;99.90
18131;DHT22;9191;54.324;10.126;2023-02-12T10:12:54;9.30;99.90
18131;DHT22;9191;54.324;10.126;2023-02-12T10:15:31;9.30;99.90
18131;DHT22;9191;54.324;10.126;2023-02-12T10:18:17;9.40;99.90
18131;DHT22;9191;54.324;10.126;2023-02-12T10:21:05;9.20;99.90
18131;DHT22;9191;54.324;10.126;2023-02-12T10:24:04;9.40;99.90
18131;DHT22;9191;54.324;10.126;2023-02-12T10:26:37;9.60;99.90
18131;DHT22;9191;54.324;10.126;2023-02-12T10:29:13;9.60;99.90
18131;DHT22;9191;54.324;10.126;2023-02-12T10:31:43;9.80;99.90
18131;DHT22;9191;54.324;10.126;2023-02-12T10:34:16;9.70;99.90
18131;DHT22;9191;54.324;10.126;2023-02-12T10:36:45;9.70;99.90
18131;DHT22;9191;54.324;10.126;2023-02-12T10:39:17;9.80;99.90
18131;DHT22;9191;54.324;10.126;2023-02-12T10:41:48;10.00;99.90
18131;DHT22;9191;54.324;10.126;2023-02-12T10:44:19;10.20;99.90
18131;DHT22;9191;54.324;10.126;2023-02-12T10:46:46;10.40;99.90
18131;DHT22;9191;54.324;10.126;2023-02-12T10:49:16;10.80;99.90
18131;DHT22;9191;54.324;10.126;2023-02-12T10:52:01;11.20;99.90
18131;DHT22;9191;54.324;10.126;2023-02-12T10:54:34;11.00;99.90
18131;DHT22;9191;54.324;10.126;2023-02-12T10:57:12;11.20;99.90
18131;DHT22;9191;54.324;10.126;2023-02-12T10:59:43;11.30;99.90
18131;DHT22;9191;54.324;10.126;2023-02-12T11:02:22;11.10;99.90
18131;DHT22;9191;54.324;10.126;2023-02-12T11:04:51;11.00;99.90
18131;DHT22;9191;54.324;10.126;2023-02-12T11:07:19;10.90;99.90
18131;DHT22;9191;54.324;10.126;2023-02-12T11:09:47;10.80;99.90
18131;DHT22;9191;54.324;10.126;2023-02-12T11:12:19;10.70;99.90
18131;DHT22;9191;54.324;10.126;2023-02-12T11:14:52;10.60;99.90
18131;DHT22;9191;54.324;10.126;2023-02-12T11:17:24;10.60;99.90
18131;DHT22;9191;54.324;10.126;2023-02-12T11:20:19;10.40;99.90
18131;DHT22;9191;54.324;10.126;2023-02-12T11:22:56;10.50;99.90
18131;DHT22;9191;54.324;10.126;2023-02-12T11:25:25;10.50;99.90
18131;DHT22;9191;54.324;10.126;2023-02-12T11:28:13;10.70;99.90
18131;DHT22;9191;54.324;10.126;2023-02-12T11:30:53;10.80;99.90
18131;DHT22;9191;54.324;10.126;2023-02-12T11:33:26;11.00;99.90
18131;DHT22;9191;54.324;10.126;2023-02-12T11:35:55;11.10;99.90
18131;DHT22;9191;54.324;10.126;2023-02-12T11:38:25;11.00;99.90
18131;DHT22;9191;54.324;10.126;2023-02-12T11:40:58;11.10;99.90
18131;DHT22;9191;54.324;10.126;2023-02-12T11:43:27;11.20;99.90
18131;DHT22;9191;54.324;10.126;2023-02-12T11:45:58;11.20;99.90
18131;DHT22;9191;54.324;10.126;2023-02-12T11:48:29;11.50;99.90
18131;DHT22;9191;54.324;10.126;2023-02-12T11:51:00;11.40;99.90
18131;DHT22;9191;54.324;10.126;2023-02-12T11:53:30;11.20;99.90
18131;DHT22;9191;54.324;10.126;2023-02-12T11:56:00;11.20;99.90
18131;DHT22;9191;54.324;10.126;2023-02-12T11:58:29;11.20;99.90
18131;DHT22;9191;54.324;10.126;2023-02-12T12:01:11;11.10;99.90
18131;DHT22;9191;54.324;10.126;2023-02-12T12:03:45;10.90;99.90
18131;DHT22;9191;54.324;10.126;2023-02-12T12:06:22;11.00;99.90
18131;DHT22;9191;54.324;10.126;2023-02-12T12:08:53;11.00;99.90
18131;DHT22;9191;54.324;10.126;2023-02-12T12:11:25;11.10;99.90
18131;DHT22;9191;54.324;10.126;2023-02-12T12:14:00;11.00;99.90
18131;DHT22;9191;54.324;10.126;2023-02-12T12:16:34;11.20;99.90
18131;DHT22;9191;54.324;10.126;2023-02-12T12:19:23;11.10;99.90
18131;DHT22;9191;54.324;10.126;2023-02-12T12:22:21;11.00;99.90
18131;DHT22;9191;54.324;10.126;2023-02-12T12:24:52;11.00;99.90
18131;DHT22;9191;54.324;10.126;2023-02-12T12:27:26;11.00;99.90
18131;DHT22;9191;54.324;10.126;2023-02-12T12:30:19;11.10;99.90
18131;DHT22;9191;54.324;10.126;2023-02-12T12:32:52;11.10;99.90
18131;DHT22;9191;54.324;10.126;2023-02-12T12:35:24;11.20;99.90
18131;DHT22;9191;54.324;10.126;2023-02-12T12:37:59;11.10;99.90
18131;DHT22;9191;54.324;10.126;2023-02-12T12:40:38;11.10;99.90
18131;DHT22;9191;54.324;10.126;2023-02-12T12:43:18;11.20;99.90
18131;DHT22;9191;54.324;10.126;2023-02-12T12:46:14;11.10;99.90
18131;DHT22;9191;54.324;10.126;2023-02-12T12:49:02;11.00;99.90
18131;DHT22;9191;54.324;10.126;2023-02-12T12:51:59;10.90;99.90
18131;DHT22;9191;54.324;10.126;2023-02-12T12:54:38;10.90;99.90
18131;DHT22;9191;54.324;10.126;2023-02-12T12:57:21;11.00;99.90
18131;DHT22;9191;54.324;10.126;2023-02-12T13:00:06;10.80;99.90
18131;DHT22;9191;54.324;10.126;2023-02-12T13:05:54;10.70;99.90
18131;DHT22;9191;54.324;10.126;2023-02-12T13:08:38;10.60;99.90
18131;DHT22;9191;54.324;10.126;2023-02-12T13:11:12;10.50;99.90
18131;DHT22;9191;54.324;10.126;2023-02-12T13:13:44;10.70;99.90
18131;DHT22;9191;54.324;10.126;2023-02-12T13:16:17;10.70;99.90
18131;DHT22;9191;54.324;10.126;2023-02-12T13:18:53;10.60;99.90
18131;DHT22;9191;54.324;10.126;2023-02-12T13:21:33;10.50;99.90
18131;DHT22;9191;54.324;10.126;2023-02-12T13:24:06;10.40;99.90
18131;DHT22;9191;54.324;10.126;2023-02-12T13:26:44;10.30;99.90
18131;DHT22;9191;54.324;10.126;2023-02-12T13:29:16;10.20;99.90
18131;DHT22;9191;54.324;10.126;2023-02-12T13:31:48;10.30;99.90
18131;DHT22;9191;54.324;10.126;2023-02-12T13:34:16;10.30;99.90
18131;DHT22;9191;54.324;10.126;2023-02-12T13:36:46;10.20;99.90
18131;DHT22;9191;54.324;10.126;2023-02-12T13:39:21;10.10;99.90
18131;DHT22;9191;54.324;10.126;2023-02-12T13:41:56;10.20;99.90
18131;DHT22;9191;54.324;10.126;2023-02-12T13:44:28;10.00;99.90
18131;DHT22;9191;54.324;10.126;2023-02-12T13:47:05;10.00;99.90
18131;DHT22;9191;54.324;10.126;2023-02-12T13:49:40;9.90;99.90
18131;DHT22;9191;54.324;10.126;2023-02-12T13:52:18;10.00;99.90
18131;DHT22;9191;54.324;10.126;2023-02-12T13:54:56;9.90;99.90
18131;DHT22;9191;54.324;10.126;2023-02-12T13:57:24;9.90;99.90
18131;DHT22;9191;54.324;10.126;2023-02-12T13:59:52;9.90;99.90
18131;DHT22;9191;54.324;10.126;2023-02-12T14:05:30;9.90;99.90
18131;DHT22;9191;54.324;10.126;2023-02-12T14:08:01;9.90;99.90
18131;DHT22;9191;54.324;10.126;2023-02-12T14:10:34;9.80;99.90
18131;DHT22;9191;54.324;10.126;2023-02-12T14:13:12;9.80;99.90
18131;DHT22;9191;54.324;10.126;2023-02-12T14:15:42;9.70;99.90
18131;DHT22;9191;54.324;10.126;2023-02-12T14:18:26;9.70;99.90
18131;DHT22;9191;54.324;10.126;2023-02-12T14:27:24;9.70;99.90
18131;DHT22;9191;54.324;10.126;2023-02-12T14:30:23;9.80;99.90
18131;DHT22;9191;54.324;10.126;2023-02-12T14:33:08;9.80;99.90
18131;DHT22;9191;54.324;10.126;2023-02-12T14:35:37;9.80;99.90
18131;DHT22;9191;54.324;10.126;2023-02-12T14:41:21;9.70;99.90
18131;DHT22;9191;54.324;10.126;2023-02-12T14:50:16;9.60;99.90
18131;DHT22;9191;54.324;10.126;2023-02-12T14:52:50;9.60;99.90
18131;DHT22;9191;54.324;10.126;2023-02-12T14:55:24;9.60;99.90
18131;DHT22;9191;54.324;10.126;2023-02-12T14:57:57;9.50;99.90
18131;DHT22;9191;54.324;10.126;2023-02-12T15:00:27;9.40;99.90
18131;DHT22;9191;54.324;10.126;2023-02-12T15:03:00;9.50;99.90
18131;DHT22;9191;54.324;10.126;2023-02-12T15:05:33;9.50;99.90
18131;DHT22;9191;54.324;10.126;2023-02-12T15:08:06;9.50;99.90
18131;DHT22;9191;54.324;10.126;2023-02-12T15:10:37;9.40;99.90
18131;DHT22;9191;54.324;10.126;2023-02-12T15:13:17;9.30;99.90
18131;DHT22;9191;54.324;10.126;2023-02-12T15:15:48;9.30;99.90
18131;DHT22;9191;54.324;10.126;2023-02-12T15:18:21;9.30;99.90
18131;DHT22;9191;54.324;10.126;2023-02-12T15:20:57;9.20;99.90
18131;DHT22;9191;54.324;10.126;2023-02-12T15:23:32;9.10;99.90
18131;DHT22;9191;54.324;10.126;2023-02-12T15:25:59;9.10;99.90
18131;DHT22;9191;54.324;10.126;2023-02-12T15:28:29;9.00;99.90
18131;DHT22;9191;54.324;10.126;2023-02-12T15:30:59;9.10;99.90
18131;DHT22;9191;54.324;10.126;2023-02-12T15:33:28;9.10;99.90
18131;DHT22;9191;54.324;10.126;2023-02-12T15:35:58;9.00;99.90
18131;DHT22;9191;54.324;10.126;2023-02-12T15:38:30;9.00;99.90
18131;DHT22;9191;54.324;10.126;2023-02-12T15:41:00;9.00;99.90
18131;DHT22;9191;54.324;10.126;2023-02-12T15:43:28;9.00;99.90
18131;DHT22;9191;54.324;10.126;2023-02-12T15:46:00;9.00;99.90
18131;DHT22;9191;54.324;10.126;2023-02-12T15:48:32;8.90;99.90
18131;DHT22;9191;54.324;10.126;2023-02-12T15:51:07;9.00;99.90
18131;DHT22;9191;54.324;10.126;2023-02-12T15:53:37;9.00;99.90
18131;DHT22;9191;54.324;10.126;2023-02-12T15:56:10;9.00;99.90
18131;DHT22;9191;54.324;10.126;2023-02-12T15:58:41;8.90;99.90
18131;DHT22;9191;54.324;10.126;2023-02-12T16:01:26;9.00;99.90
18131;DHT22;9191;54.324;10.126;2023-02-12T16:03:55;9.00;99.90
18131;DHT22;9191;54.324;10.126;2023-02-12T16:06:25;9.00;99.90
18131;DHT22;9191;54.324;10.126;2023-02-12T16:08:58;9.00;99.90
18131;DHT22;9191;54.324;10.126;2023-02-12T16:11:28;9.00;99.90
18131;DHT22;9191;54.324;10.126;2023-02-12T16:13:59;8.80;99.90
18131;DHT22;9191;54.324;10.126;2023-02-12T16:16:28;8.80;99.90
18131;DHT22;9191;54.324;10.126;2023-02-12T16:19:04;8.80;99.90
18131;DHT22;9191;54.324;10.126;2023-02-12T16:21:34;8.80;99.90
18131;DHT22;9191;54.324;10.126;2023-02-12T16:24:02;8.70;99.90
18131;DHT22;9191;54.324;10.126;2023-02-12T16:26:29;8.80;99.90
18131;DHT22;9191;54.324;10.126;2023-02-12T16:28:56;8.80;99.90
18131;DHT22;9191;54.324;10.126;2023-02-12T16:31:25;8.70;99.90
18131;DHT22;9191;54.324;10.126;2023-02-12T16:33:54;8.70;99.90
18131;DHT22;9191;54.324;10.126;2023-02-12T16:36:29;8.80;99.90
18131;DHT22;9191;54.324;10.126;2023-02-12T16:38:59;8.80;99.90